sensor_id;sensor_type;location;lat;lon;timestamp;P1;durP1;ratioP1;P2;durP2;ratioP2
14797;SDS011;7490;63.708;20.368;2023-07-20T00:00:19;1.67;;;1.57;;
14797;SDS011;7490;63.708;20.368;2023-07-20T00:02:45;1.67;;;1.57;;
14797;SDS011;7490;63.708;20.368;2023-07-20T00:05:10;1.50;;;1.37;;
14797;SDS011;7490;63.708;20.368;2023-07-20T00:07:36;2.13;;;1.40;;
14797;SDS011;7490;63.708;20.368;2023-07-20T00:10:02;1.50;;;1.40;;
14797;SDS011;7490;63.708;20.368;2023-07-20T00:12:27;1.80;;;1.50;;
14797;SDS011;7490;63.708;20.368;2023-07-20T00:14:53;1.70;;;1.60;;
14797;SDS011;7490;63.708;20.368;2023-07-20T00:17:19;1.77;;;1.40;;
14797;SDS011;7490;63.708;20.368;2023-07-20T00:19:45;1.60;;;1.50;;
14797;SDS011;7490;63.708;20.368;2023-07-20T00:22:11;1.77;;;1.63;;
14797;SDS011;7490;63.708;20.368;2023-07-20T00:24:38;1.83;;;1.67;;
14797;SDS011;7490;63.708;20.368;2023-07-20T00:27:03;6.73;;;1.67;;
14797;SDS011;7490;63.708;20.368;2023-07-20T00:29:29;1.73;;;1.40;;
14797;SDS011;7490;63.708;20.368;2023-07-20T00:31:55;3.47;;;1.50;;
14797;SDS011;7490;63.708;20.368;2023-07-20T00:34:21;2.20;;;1.50;;
14797;SDS011;7490;63.708;20.368;2023-07-20T00:36:47;1.47;;;1.47;;
14797;SDS011;7490;63.708;20.368;2023-07-20T00:39:14;1.60;;;1.50;;
14797;SDS011;7490;63.708;20.368;2023-07-20T00:41:39;1.87;;;1.50;;
14797;SDS011;7490;63.708;20.368;2023-07-20T00:44:05;2.63;;;1.50;;
14797;SDS011;7490;63.708;20.368;2023-07-20T00:46:31;1.47;;;1.37;;
14797;SDS011;7490;63.708;20.368;2023-07-20T00:48:57;1.50;;;1.40;;
14797;SDS011;7490;63.708;20.368;2023-07-20T00:51:24;1.93;;;1.40;;
14797;SDS011;7490;63.708;20.368;2023-07-20T00:53:51;1.57;;;1.47;;
14797;SDS011;7490;63.708;20.368;2023-07-20T00:56:18;2.17;;;1.50;;
14797;SDS011;7490;63.708;20.368;2023-07-20T00:58:44;1.60;;;1.50;;
14797;SDS011;7490;63.708;20.368;2023-07-20T01:01:10;2.50;;;1.60;;
14797;SDS011;7490;63.708;20.368;2023-07-20T01:03:36;2.20;;;1.50;;
14797;SDS011;7490;63.708;20.368;2023-07-20T01:06:10;1.40;;;1.40;;
14797;SDS011;7490;63.708;20.368;2023-07-20T01:09:14;1.63;;;1.50;;
14797;SDS011;7490;63.708;20.368;2023-07-20T01:12:27;2.53;;;1.60;;
14797;SDS011;7490;63.708;20.368;2023-07-20T01:14:55;1.77;;;1.67;;
14797;SDS011;7490;63.708;20.368;2023-07-20T01:17:21;1.60;;;1.50;;
14797;SDS011;7490;63.708;20.368;2023-07-20T01:19:49;1.60;;;1.50;;
14797;SDS011;7490;63.708;20.368;2023-07-20T01:30:50;2.43;;;1.60;;
14797;SDS011;7490;63.708;20.368;2023-07-20T01:33:34;1.77;;;1.60;;
14797;SDS011;7490;63.708;20.368;2023-07-20T01:36:01;1.90;;;1.63;;
14797;SDS011;7490;63.708;20.368;2023-07-20T01:38:28;1.63;;;1.53;;
14797;SDS011;7490;63.708;20.368;2023-07-20T01:40:53;1.70;;;1.60;;
14797;SDS011;7490;63.708;20.368;2023-07-20T01:43:20;1.70;;;1.60;;
14797;SDS011;7490;63.708;20.368;2023-07-20T01:45:47;1.97;;;1.87;;
14797;SDS011;7490;63.708;20.368;2023-07-20T01:48:12;1.50;;;1.40;;
14797;SDS011;7490;63.708;20.368;2023-07-20T01:50:38;1.87;;;1.70;;
14797;SDS011;7490;63.708;20.368;2023-07-20T01:53:04;2.73;;;1.67;;
14797;SDS011;7490;63.708;20.368;2023-07-20T01:55:29;2.30;;;1.60;;
14797;SDS011;7490;63.708;20.368;2023-07-20T01:57:55;1.83;;;1.60;;
14797;SDS011;7490;63.708;20.368;2023-07-20T02:00:21;1.60;;;1.50;;
14797;SDS011;7490;63.708;20.368;2023-07-20T02:02:49;1.93;;;1.50;;
14797;SDS011;7490;63.708;20.368;2023-07-20T02:05:15;2.80;;;1.50;;
14797;SDS011;7490;63.708;20.368;2023-07-20T02:07:41;1.93;;;1.73;;
14797;SDS011;7490;63.708;20.368;2023-07-20T02:10:07;1.70;;;1.60;;
14797;SDS011;7490;63.708;20.368;2023-07-20T02:12:33;1.60;;;1.50;;
14797;SDS011;7490;63.708;20.368;2023-07-20T02:14:59;1.60;;;1.50;;
14797;SDS011;7490;63.708;20.368;2023-07-20T02:17:25;1.60;;;1.50;;
14797;SDS011;7490;63.708;20.368;2023-07-20T02:19:52;1.80;;;1.50;;
14797;SDS011;7490;63.708;20.368;2023-07-20T02:22:18;1.60;;;1.50;;
14797;SDS011;7490;63.708;20.368;2023-07-20T02:24:44;1.60;;;1.50;;
14797;SDS011;7490;63.708;20.368;2023-07-20T02:27:09;1.50;;;1.40;;
14797;SDS011;7490;63.708;20.368;2023-07-20T02:29:35;1.60;;;1.50;;
14797;SDS011;7490;63.708;20.368;2023-07-20T02:32:01;1.50;;;1.40;;
14797;SDS011;7490;63.708;20.368;2023-07-20T02:34:27;1.70;;;1.57;;
14797;SDS011;7490;63.708;20.368;2023-07-20T02:36:52;1.53;;;1.43;;
14797;SDS011;7490;63.708;20.368;2023-07-20T02:39:21;1.63;;;1.50;;
14797;SDS011;7490;63.708;20.368;2023-07-20T02:41:46;1.43;;;1.33;;
14797;SDS011;7490;63.708;20.368;2023-07-20T02:44:13;3.23;;;1.50;;
14797;SDS011;7490;63.708;20.368;2023-07-20T02:46:39;1.93;;;1.43;;
14797;SDS011;7490;63.708;20.368;2023-07-20T02:49:05;2.77;;;1.47;;
14797;SDS011;7490;63.708;20.368;2023-07-20T02:51:31;1.60;;;1.50;;
14797;SDS011;7490;63.708;20.368;2023-07-20T02:53:57;1.60;;;1.50;;
14797;SDS011;7490;63.708;20.368;2023-07-20T02:56:22;1.93;;;1.47;;
14797;SDS011;7490;63.708;20.368;2023-07-20T02:58:48;1.47;;;1.40;;
14797;SDS011;7490;63.708;20.368;2023-07-20T03:01:14;1.73;;;1.40;;
14797;SDS011;7490;63.708;20.368;2023-07-20T03:03:40;1.73;;;1.33;;
14797;SDS011;7490;63.708;20.368;2023-07-20T03:06:05;0.97;;;0.97;;
14797;SDS011;7490;63.708;20.368;2023-07-20T03:08:34;1.00;;;1.00;;
14797;SDS011;7490;63.708;20.368;2023-07-20T03:11:01;2.43;;;1.20;;
14797;SDS011;7490;63.708;20.368;2023-07-20T03:13:26;1.53;;;1.20;;
14797;SDS011;7490;63.708;20.368;2023-07-20T03:15:52;1.00;;;1.00;;
14797;SDS011;7490;63.708;20.368;2023-07-20T03:18:18;0.93;;;0.93;;
14797;SDS011;7490;63.708;20.368;2023-07-20T03:20:44;1.97;;;0.87;;
14797;SDS011;7490;63.708;20.368;2023-07-20T03:23:10;1.10;;;1.10;;
14797;SDS011;7490;63.708;20.368;2023-07-20T03:25:35;0.90;;;0.90;;
14797;SDS011;7490;63.708;20.368;2023-07-20T03:28:02;0.90;;;0.90;;
14797;SDS011;7490;63.708;20.368;2023-07-20T03:30:28;0.90;;;0.90;;
14797;SDS011;7490;63.708;20.368;2023-07-20T03:32:54;0.90;;;0.90;;
14797;SDS011;7490;63.708;20.368;2023-07-20T03:35:19;0.87;;;0.87;;
14797;SDS011;7490;63.708;20.368;2023-07-20T03:37:45;1.47;;;0.90;;
14797;SDS011;7490;63.708;20.368;2023-07-20T03:40:11;2.00;;;0.90;;
14797;SDS011;7490;63.708;20.368;2023-07-20T03:42:36;1.00;;;0.90;;
14797;SDS011;7490;63.708;20.368;2023-07-20T03:45:03;0.80;;;0.80;;
14797;SDS011;7490;63.708;20.368;2023-07-20T03:47:31;0.70;;;0.70;;
14797;SDS011;7490;63.708;20.368;2023-07-20T03:49:57;0.80;;;0.80;;
14797;SDS011;7490;63.708;20.368;2023-07-20T03:52:23;1.03;;;0.70;;
14797;SDS011;7490;63.708;20.368;2023-07-20T03:54:49;0.70;;;0.70;;
14797;SDS011;7490;63.708;20.368;2023-07-20T03:57:16;0.90;;;0.90;;
14797;SDS011;7490;63.708;20.368;2023-07-20T03:59:44;0.90;;;0.90;;
14797;SDS011;7490;63.708;20.368;2023-07-20T04:02:11;0.80;;;0.80;;
14797;SDS011;7490;63.708;20.368;2023-07-20T04:04:36;0.70;;;0.70;;
14797;SDS011;7490;63.708;20.368;2023-07-20T04:07:02;0.80;;;0.70;;
14797;SDS011;7490;63.708;20.368;2023-07-20T04:09:28;0.70;;;0.70;;
14797;SDS011;7490;63.708;20.368;2023-07-20T04:11:54;1.00;;;0.90;;
14797;SDS011;7490;63.708;20.368;2023-07-20T04:14:20;1.20;;;0.73;;
14797;SDS011;7490;63.708;20.368;2023-07-20T04:16:46;0.87;;;0.87;;
14797;SDS011;7490;63.708;20.368;2023-07-20T04:19:12;0.70;;;0.70;;
14797;SDS011;7490;63.708;20.368;2023-07-20T04:21:41;0.90;;;0.90;;
14797;SDS011;7490;63.708;20.368;2023-07-20T04:24:07;0.70;;;0.70;;
14797;SDS011;7490;63.708;20.368;2023-07-20T04:26:32;0.80;;;0.80;;
14797;SDS011;7490;63.708;20.368;2023-07-20T04:28:58;0.83;;;0.77;;
14797;SDS011;7490;63.708;20.368;2023-07-20T04:31:24;0.90;;;0.90;;
14797;SDS011;7490;63.708;20.368;2023-07-20T04:33:50;0.80;;;0.80;;
14797;SDS011;7490;63.708;20.368;2023-07-20T04:36:16;0.90;;;0.90;;
14797;SDS011;7490;63.708;20.368;2023-07-20T04:38:44;1.13;;;0.70;;
14797;SDS011;7490;63.708;20.368;2023-07-20T04:41:11;0.80;;;0.80;;
14797;SDS011;7490;63.708;20.368;2023-07-20T04:43:43;0.80;;;0.80;;
14797;SDS011;7490;63.708;20.368;2023-07-20T04:46:12;0.80;;;0.80;;
14797;SDS011;7490;63.708;20.368;2023-07-20T04:48:38;0.80;;;0.80;;
14797;SDS011;7490;63.708;20.368;2023-07-20T04:51:05;0.70;;;0.70;;
14797;SDS011;7490;63.708;20.368;2023-07-20T04:53:31;0.80;;;0.80;;
14797;SDS011;7490;63.708;20.368;2023-07-20T04:55:57;1.27;;;0.80;;
14797;SDS011;7490;63.708;20.368;2023-07-20T04:58:22;1.00;;;0.90;;
14797;SDS011;7490;63.708;20.368;2023-07-20T05:00:49;0.70;;;0.70;;
14797;SDS011;7490;63.708;20.368;2023-07-20T05:03:15;2.20;;;0.90;;
14797;SDS011;7490;63.708;20.368;2023-07-20T05:05:40;0.70;;;0.70;;
14797;SDS011;7490;63.708;20.368;2023-07-20T05:08:06;1.65;;;0.90;;
14797;SDS011;7490;63.708;20.368;2023-07-20T05:10:32;0.70;;;0.70;;
14797;SDS011;7490;63.708;20.368;2023-07-20T05:12:58;1.17;;;0.80;;
14797;SDS011;7490;63.708;20.368;2023-07-20T05:15:24;1.20;;;0.80;;
14797;SDS011;7490;63.708;20.368;2023-07-20T05:17:50;0.95;;;0.80;;
14797;SDS011;7490;63.708;20.368;2023-07-20T05:20:15;0.80;;;0.80;;
14797;SDS011;7490;63.708;20.368;2023-07-20T05:22:42;0.80;;;0.80;;
14797;SDS011;7490;63.708;20.368;2023-07-20T05:25:08;0.77;;;0.77;;
14797;SDS011;7490;63.708;20.368;2023-07-20T05:27:38;0.70;;;0.70;;
14797;SDS011;7490;63.708;20.368;2023-07-20T05:30:05;0.63;;;0.63;;
14797;SDS011;7490;63.708;20.368;2023-07-20T05:32:32;0.77;;;0.77;;
14797;SDS011;7490;63.708;20.368;2023-07-20T05:34:58;0.80;;;0.80;;
14797;SDS011;7490;63.708;20.368;2023-07-20T05:37:24;0.70;;;0.70;;
14797;SDS011;7490;63.708;20.368;2023-07-20T05:39:50;0.77;;;0.77;;
14797;SDS011;7490;63.708;20.368;2023-07-20T05:42:16;0.95;;;0.80;;
14797;SDS011;7490;63.708;20.368;2023-07-20T05:44:41;1.23;;;0.90;;
14797;SDS011;7490;63.708;20.368;2023-07-20T05:47:07;0.80;;;0.80;;
14797;SDS011;7490;63.708;20.368;2023-07-20T05:49:34;0.60;;;0.60;;
14797;SDS011;7490;63.708;20.368;2023-07-20T05:52:00;0.80;;;0.80;;
14797;SDS011;7490;63.708;20.368;2023-07-20T05:54:26;0.70;;;0.70;;
14797;SDS011;7490;63.708;20.368;2023-07-20T05:56:52;0.90;;;0.90;;
14797;SDS011;7490;63.708;20.368;2023-07-20T05:59:18;0.80;;;0.80;;
14797;SDS011;7490;63.708;20.368;2023-07-20T06:01:44;0.90;;;0.80;;
14797;SDS011;7490;63.708;20.368;2023-07-20T06:04:11;0.82;;;0.82;;
14797;SDS011;7490;63.708;20.368;2023-07-20T06:06:36;0.80;;;0.80;;
14797;SDS011;7490;63.708;20.368;2023-07-20T06:09:02;0.90;;;0.90;;
14797;SDS011;7490;63.708;20.368;2023-07-20T06:11:29;0.80;;;0.80;;
14797;SDS011;7490;63.708;20.368;2023-07-20T06:13:56;1.33;;;0.90;;
14797;SDS011;7490;63.708;20.368;2023-07-20T06:16:22;0.98;;;0.90;;
14797;SDS011;7490;63.708;20.368;2023-07-20T06:18:47;0.93;;;0.93;;
14797;SDS011;7490;63.708;20.368;2023-07-20T06:21:13;0.90;;;0.90;;
14797;SDS011;7490;63.708;20.368;2023-07-20T06:23:39;0.80;;;0.80;;
14797;SDS011;7490;63.708;20.368;2023-07-20T06:26:06;0.90;;;0.90;;
14797;SDS011;7490;63.708;20.368;2023-07-20T06:28:32;0.80;;;0.80;;
14797;SDS011;7490;63.708;20.368;2023-07-20T06:31:01;0.93;;;0.93;;
14797;SDS011;7490;63.708;20.368;2023-07-20T06:33:27;0.90;;;0.90;;
14797;SDS011;7490;63.708;20.368;2023-07-20T06:35:53;1.15;;;0.80;;
14797;SDS011;7490;63.708;20.368;2023-07-20T06:38:19;1.15;;;1.00;;
14797;SDS011;7490;63.708;20.368;2023-07-20T06:40:48;0.85;;;0.85;;
14797;SDS011;7490;63.708;20.368;2023-07-20T06:43:16;0.93;;;0.93;;
14797;SDS011;7490;63.708;20.368;2023-07-20T06:45:42;1.45;;;0.80;;
14797;SDS011;7490;63.708;20.368;2023-07-20T06:48:08;0.93;;;0.82;;
14797;SDS011;7490;63.708;20.368;2023-07-20T06:50:33;0.90;;;0.90;;
14797;SDS011;7490;63.708;20.368;2023-07-20T06:52:59;0.73;;;0.73;;
14797;SDS011;7490;63.708;20.368;2023-07-20T06:55:28;0.80;;;0.80;;
14797;SDS011;7490;63.708;20.368;2023-07-20T06:57:53;0.80;;;0.80;;
14797;SDS011;7490;63.708;20.368;2023-07-20T07:00:19;1.10;;;1.00;;
14797;SDS011;7490;63.708;20.368;2023-07-20T07:02:45;0.80;;;0.80;;
14797;SDS011;7490;63.708;20.368;2023-07-20T07:05:10;1.17;;;1.10;;
14797;SDS011;7490;63.708;20.368;2023-07-20T07:07:38;0.98;;;0.90;;
14797;SDS011;7490;63.708;20.368;2023-07-20T07:10:04;0.90;;;0.90;;
14797;SDS011;7490;63.708;20.368;2023-07-20T07:12:30;0.90;;;0.90;;
14797;SDS011;7490;63.708;20.368;2023-07-20T07:14:56;0.82;;;0.82;;
14797;SDS011;7490;63.708;20.368;2023-07-20T07:17:22;0.80;;;0.80;;
14797;SDS011;7490;63.708;20.368;2023-07-20T07:19:48;0.80;;;0.80;;
14797;SDS011;7490;63.708;20.368;2023-07-20T07:22:14;0.90;;;0.90;;
14797;SDS011;7490;63.708;20.368;2023-07-20T07:24:40;0.90;;;0.90;;
14797;SDS011;7490;63.708;20.368;2023-07-20T07:27:08;0.65;;;0.60;;
14797;SDS011;7490;63.708;20.368;2023-07-20T07:29:34;1.60;;;0.80;;
14797;SDS011;7490;63.708;20.368;2023-07-20T07:31:59;0.70;;;0.70;;
14797;SDS011;7490;63.708;20.368;2023-07-20T07:34:26;0.80;;;0.80;;
14797;SDS011;7490;63.708;20.368;2023-07-20T07:36:52;0.80;;;0.80;;
14797;SDS011;7490;63.708;20.368;2023-07-20T07:39:18;0.90;;;0.90;;
14797;SDS011;7490;63.708;20.368;2023-07-20T07:41:44;0.80;;;0.80;;
14797;SDS011;7490;63.708;20.368;2023-07-20T07:44:10;0.60;;;0.60;;
14797;SDS011;7490;63.708;20.368;2023-07-20T07:46:35;1.07;;;0.70;;
14797;SDS011;7490;63.708;20.368;2023-07-20T07:49:01;0.77;;;0.77;;
14797;SDS011;7490;63.708;20.368;2023-07-20T07:51:27;0.90;;;0.90;;
14797;SDS011;7490;63.708;20.368;2023-07-20T07:53:52;1.40;;;0.83;;
14797;SDS011;7490;63.708;20.368;2023-07-20T07:56:18;0.80;;;0.80;;
14797;SDS011;7490;63.708;20.368;2023-07-20T07:58:48;0.80;;;0.80;;
14797;SDS011;7490;63.708;20.368;2023-07-20T08:01:16;0.75;;;0.75;;
14797;SDS011;7490;63.708;20.368;2023-07-20T08:03:43;0.90;;;0.90;;
14797;SDS011;7490;63.708;20.368;2023-07-20T08:06:12;0.80;;;0.80;;
14797;SDS011;7490;63.708;20.368;2023-07-20T08:08:38;0.90;;;0.90;;
14797;SDS011;7490;63.708;20.368;2023-07-20T08:11:04;0.93;;;0.90;;
14797;SDS011;7490;63.708;20.368;2023-07-20T08:13:30;0.80;;;0.80;;
14797;SDS011;7490;63.708;20.368;2023-07-20T08:15:57;1.10;;;1.00;;
14797;SDS011;7490;63.708;20.368;2023-07-20T08:18:22;0.73;;;0.73;;
14797;SDS011;7490;63.708;20.368;2023-07-20T08:20:48;0.80;;;0.80;;
14797;SDS011;7490;63.708;20.368;2023-07-20T08:23:14;0.90;;;0.90;;
14797;SDS011;7490;63.708;20.368;2023-07-20T08:25:40;1.13;;;0.93;;
14797;SDS011;7490;63.708;20.368;2023-07-20T08:28:13;0.80;;;0.80;;
14797;SDS011;7490;63.708;20.368;2023-07-20T08:30:44;1.00;;;0.90;;
14797;SDS011;7490;63.708;20.368;2023-07-20T08:33:12;0.80;;;0.80;;
14797;SDS011;7490;63.708;20.368;2023-07-20T08:35:38;0.90;;;0.90;;
14797;SDS011;7490;63.708;20.368;2023-07-20T08:38:04;1.00;;;1.00;;
14797;SDS011;7490;63.708;20.368;2023-07-20T08:40:31;1.08;;;0.95;;
14797;SDS011;7490;63.708;20.368;2023-07-20T08:42:57;1.30;;;1.20;;
14797;SDS011;7490;63.708;20.368;2023-07-20T08:45:25;1.05;;;1.02;;
14797;SDS011;7490;63.708;20.368;2023-07-20T08:47:54;1.50;;;1.10;;
14797;SDS011;7490;63.708;20.368;2023-07-20T08:50:21;1.37;;;1.10;;
14797;SDS011;7490;63.708;20.368;2023-07-20T08:52:48;1.00;;;1.00;;
14797;SDS011;7490;63.708;20.368;2023-07-20T08:55:15;1.20;;;1.10;;
14797;SDS011;7490;63.708;20.368;2023-07-20T08:57:40;1.23;;;1.00;;
14797;SDS011;7490;63.708;20.368;2023-07-20T09:00:08;1.70;;;1.40;;
14797;SDS011;7490;63.708;20.368;2023-07-20T09:02:38;1.10;;;1.10;;
14797;SDS011;7490;63.708;20.368;2023-07-20T09:05:07;1.37;;;1.27;;
14797;SDS011;7490;63.708;20.368;2023-07-20T09:07:35;1.10;;;1.10;;
14797;SDS011;7490;63.708;20.368;2023-07-20T09:10:01;1.07;;;1.07;;
14797;SDS011;7490;63.708;20.368;2023-07-20T09:12:31;1.10;;;1.10;;
14797;SDS011;7490;63.708;20.368;2023-07-20T09:15:00;1.20;;;1.20;;
14797;SDS011;7490;63.708;20.368;2023-07-20T09:17:26;1.00;;;1.00;;
14797;SDS011;7490;63.708;20.368;2023-07-20T09:19:52;1.33;;;1.23;;
14797;SDS011;7490;63.708;20.368;2023-07-20T09:22:17;1.30;;;1.20;;
14797;SDS011;7490;63.708;20.368;2023-07-20T09:24:44;0.93;;;0.93;;
14797;SDS011;7490;63.708;20.368;2023-07-20T09:27:10;1.47;;;1.20;;
14797;SDS011;7490;63.708;20.368;2023-07-20T09:29:49;1.17;;;1.13;;
14797;SDS011;7490;63.708;20.368;2023-07-20T09:32:17;1.23;;;1.20;;
14797;SDS011;7490;63.708;20.368;2023-07-20T09:34:45;1.33;;;1.20;;
14797;SDS011;7490;63.708;20.368;2023-07-20T09:37:11;1.63;;;1.30;;
14797;SDS011;7490;63.708;20.368;2023-07-20T09:39:46;1.30;;;1.20;;
14797;SDS011;7490;63.708;20.368;2023-07-20T09:42:12;1.17;;;1.17;;
14797;SDS011;7490;63.708;20.368;2023-07-20T09:44:39;2.00;;;1.20;;
14797;SDS011;7490;63.708;20.368;2023-07-20T09:47:05;1.20;;;1.20;;
14797;SDS011;7490;63.708;20.368;2023-07-20T09:49:31;1.10;;;1.00;;
14797;SDS011;7490;63.708;20.368;2023-07-20T09:51:57;2.17;;;1.20;;
14797;SDS011;7490;63.708;20.368;2023-07-20T09:54:25;1.20;;;1.20;;
14797;SDS011;7490;63.708;20.368;2023-07-20T09:56:54;1.10;;;1.10;;
14797;SDS011;7490;63.708;20.368;2023-07-20T09:59:21;1.00;;;1.00;;
14797;SDS011;7490;63.708;20.368;2023-07-20T10:01:47;1.03;;;0.90;;
14797;SDS011;7490;63.708;20.368;2023-07-20T10:04:14;1.00;;;1.00;;
14797;SDS011;7490;63.708;20.368;2023-07-20T10:06:43;1.17;;;1.17;;
14797;SDS011;7490;63.708;20.368;2023-07-20T10:09:15;2.27;;;1.30;;
14797;SDS011;7490;63.708;20.368;2023-07-20T10:11:43;1.93;;;1.20;;
14797;SDS011;7490;63.708;20.368;2023-07-20T10:14:14;1.33;;;1.33;;
14797;SDS011;7490;63.708;20.368;2023-07-20T10:16:51;1.40;;;1.30;;
14797;SDS011;7490;63.708;20.368;2023-07-20T10:22:08;1.20;;;1.20;;
14797;SDS011;7490;63.708;20.368;2023-07-20T10:24:39;1.20;;;1.20;;
14797;SDS011;7490;63.708;20.368;2023-07-20T10:27:06;1.47;;;1.47;;
14797;SDS011;7490;63.708;20.368;2023-07-20T10:29:32;1.27;;;1.20;;
14797;SDS011;7490;63.708;20.368;2023-07-20T10:31:58;2.47;;;1.57;;
14797;SDS011;7490;63.708;20.368;2023-07-20T10:34:24;2.00;;;1.90;;
14797;SDS011;7490;63.708;20.368;2023-07-20T10:36:50;1.73;;;1.63;;
14797;SDS011;7490;63.708;20.368;2023-07-20T10:39:24;1.70;;;1.60;;
14797;SDS011;7490;63.708;20.368;2023-07-20T10:41:59;2.53;;;1.50;;
14797;SDS011;7490;63.708;20.368;2023-07-20T10:44:27;1.57;;;1.47;;
14797;SDS011;7490;63.708;20.368;2023-07-20T10:46:58;1.20;;;1.20;;
14797;SDS011;7490;63.708;20.368;2023-07-20T10:49:28;1.20;;;1.17;;
14797;SDS011;7490;63.708;20.368;2023-07-20T10:51:57;1.40;;;1.30;;
14797;SDS011;7490;63.708;20.368;2023-07-20T10:56:52;1.23;;;1.10;;
14797;SDS011;7490;63.708;20.368;2023-07-20T10:59:41;1.50;;;1.40;;
14797;SDS011;7490;63.708;20.368;2023-07-20T11:02:07;1.40;;;1.30;;
14797;SDS011;7490;63.708;20.368;2023-07-20T11:04:43;1.40;;;1.30;;
14797;SDS011;7490;63.708;20.368;2023-07-20T11:07:09;1.40;;;1.30;;
14797;SDS011;7490;63.708;20.368;2023-07-20T11:09:40;1.40;;;1.30;;
14797;SDS011;7490;63.708;20.368;2023-07-20T11:12:12;1.00;;;1.00;;
14797;SDS011;7490;63.708;20.368;2023-07-20T11:14:43;1.10;;;1.10;;
14797;SDS011;7490;63.708;20.368;2023-07-20T11:17:19;1.20;;;1.10;;
14797;SDS011;7490;63.708;20.368;2023-07-20T11:19:50;1.20;;;1.10;;
14797;SDS011;7490;63.708;20.368;2023-07-20T11:22:21;1.40;;;1.30;;
14797;SDS011;7490;63.708;20.368;2023-07-20T11:24:47;1.80;;;1.70;;
14797;SDS011;7490;63.708;20.368;2023-07-20T11:27:14;1.10;;;1.10;;
14797;SDS011;7490;63.708;20.368;2023-07-20T11:29:40;1.30;;;1.30;;
14797;SDS011;7490;63.708;20.368;2023-07-20T11:32:06;1.30;;;1.30;;
14797;SDS011;7490;63.708;20.368;2023-07-20T11:34:32;1.40;;;1.30;;
14797;SDS011;7490;63.708;20.368;2023-07-20T11:36:58;1.43;;;1.33;;
14797;SDS011;7490;63.708;20.368;2023-07-20T11:39:24;1.17;;;1.17;;
14797;SDS011;7490;63.708;20.368;2023-07-20T11:41:59;1.40;;;1.30;;
14797;SDS011;7490;63.708;20.368;2023-07-20T11:44:28;1.30;;;1.30;;
14797;SDS011;7490;63.708;20.368;2023-07-20T11:47:01;1.30;;;1.30;;
14797;SDS011;7490;63.708;20.368;2023-07-20T11:49:30;1.37;;;1.37;;
14797;SDS011;7490;63.708;20.368;2023-07-20T11:52:00;1.43;;;1.43;;
14797;SDS011;7490;63.708;20.368;2023-07-20T11:54:26;1.30;;;1.30;;
14797;SDS011;7490;63.708;20.368;2023-07-20T11:56:55;1.50;;;1.40;;
14797;SDS011;7490;63.708;20.368;2023-07-20T11:59:21;1.00;;;1.00;;
14797;SDS011;7490;63.708;20.368;2023-07-20T12:01:47;1.23;;;1.23;;
14797;SDS011;7490;63.708;20.368;2023-07-20T12:04:13;2.10;;;1.10;;
14797;SDS011;7490;63.708;20.368;2023-07-20T12:06:38;1.20;;;1.20;;
14797;SDS011;7490;63.708;20.368;2023-07-20T12:09:04;3.00;;;1.37;;
14797;SDS011;7490;63.708;20.368;2023-07-20T12:11:30;1.80;;;1.27;;
14797;SDS011;7490;63.708;20.368;2023-07-20T12:13:57;1.20;;;1.20;;
14797;SDS011;7490;63.708;20.368;2023-07-20T12:16:26;1.57;;;1.47;;
14797;SDS011;7490;63.708;20.368;2023-07-20T12:19:02;1.20;;;1.20;;
14797;SDS011;7490;63.708;20.368;2023-07-20T12:21:30;1.17;;;1.17;;
14797;SDS011;7490;63.708;20.368;2023-07-20T12:23:57;2.70;;;1.30;;
14797;SDS011;7490;63.708;20.368;2023-07-20T12:26:23;1.33;;;1.20;;
14797;SDS011;7490;63.708;20.368;2023-07-20T12:28:50;1.87;;;1.30;;
14797;SDS011;7490;63.708;20.368;2023-07-20T12:31:16;1.57;;;1.20;;
14797;SDS011;7490;63.708;20.368;2023-07-20T12:33:42;1.20;;;1.20;;
14797;SDS011;7490;63.708;20.368;2023-07-20T12:36:08;1.00;;;1.00;;
14797;SDS011;7490;63.708;20.368;2023-07-20T12:38:35;1.20;;;1.20;;
14797;SDS011;7490;63.708;20.368;2023-07-20T12:41:01;1.10;;;1.10;;
14797;SDS011;7490;63.708;20.368;2023-07-20T12:43:28;1.53;;;1.30;;
14797;SDS011;7490;63.708;20.368;2023-07-20T12:45:54;1.10;;;1.10;;
14797;SDS011;7490;63.708;20.368;2023-07-20T12:48:21;1.20;;;1.20;;
14797;SDS011;7490;63.708;20.368;2023-07-20T12:50:47;1.27;;;1.23;;
14797;SDS011;7490;63.708;20.368;2023-07-20T12:53:13;1.10;;;1.10;;
14797;SDS011;7490;63.708;20.368;2023-07-20T12:55:39;1.17;;;1.17;;
14797;SDS011;7490;63.708;20.368;2023-07-20T12:58:05;1.40;;;1.30;;
14797;SDS011;7490;63.708;20.368;2023-07-20T13:00:31;4.90;;;1.07;;
14797;SDS011;7490;63.708;20.368;2023-07-20T13:02:57;1.20;;;1.10;;
14797;SDS011;7490;63.708;20.368;2023-07-20T13:05:23;1.57;;;1.13;;
14797;SDS011;7490;63.708;20.368;2023-07-20T13:07:48;1.87;;;1.10;;
14797;SDS011;7490;63.708;20.368;2023-07-20T13:10:14;1.20;;;1.10;;
14797;SDS011;7490;63.708;20.368;2023-07-20T13:12:40;1.20;;;1.20;;
14797;SDS011;7490;63.708;20.368;2023-07-20T13:15:06;1.00;;;1.00;;
14797;SDS011;7490;63.708;20.368;2023-07-20T13:17:33;1.50;;;1.40;;
14797;SDS011;7490;63.708;20.368;2023-07-20T13:20:00;1.00;;;1.00;;
14797;SDS011;7490;63.708;20.368;2023-07-20T13:22:26;1.20;;;1.10;;
14797;SDS011;7490;63.708;20.368;2023-07-20T13:24:52;1.73;;;1.10;;
14797;SDS011;7490;63.708;20.368;2023-07-20T13:27:18;1.03;;;1.03;;
14797;SDS011;7490;63.708;20.368;2023-07-20T13:29:44;1.10;;;1.10;;
14797;SDS011;7490;63.708;20.368;2023-07-20T13:32:13;1.20;;;1.10;;
14797;SDS011;7490;63.708;20.368;2023-07-20T13:34:43;1.00;;;1.00;;
14797;SDS011;7490;63.708;20.368;2023-07-20T13:37:09;1.00;;;1.00;;
14797;SDS011;7490;63.708;20.368;2023-07-20T13:39:36;1.20;;;1.20;;
14797;SDS011;7490;63.708;20.368;2023-07-20T13:42:02;0.90;;;0.90;;
14797;SDS011;7490;63.708;20.368;2023-07-20T13:44:30;1.00;;;1.00;;
14797;SDS011;7490;63.708;20.368;2023-07-20T13:46:56;0.90;;;0.90;;
14797;SDS011;7490;63.708;20.368;2023-07-20T13:49:22;1.47;;;1.10;;
14797;SDS011;7490;63.708;20.368;2023-07-20T13:51:48;0.97;;;0.97;;
14797;SDS011;7490;63.708;20.368;2023-07-20T13:54:13;1.10;;;1.00;;
14797;SDS011;7490;63.708;20.368;2023-07-20T13:56:39;1.10;;;1.00;;
14797;SDS011;7490;63.708;20.368;2023-07-20T13:59:05;0.90;;;0.90;;
14797;SDS011;7490;63.708;20.368;2023-07-20T14:01:31;1.00;;;1.00;;
14797;SDS011;7490;63.708;20.368;2023-07-20T14:03:59;2.60;;;1.20;;
14797;SDS011;7490;63.708;20.368;2023-07-20T14:06:25;1.00;;;1.00;;
14797;SDS011;7490;63.708;20.368;2023-07-20T14:08:51;1.10;;;1.10;;
14797;SDS011;7490;63.708;20.368;2023-07-20T14:11:18;1.00;;;1.00;;
14797;SDS011;7490;63.708;20.368;2023-07-20T14:13:44;0.97;;;0.90;;
14797;SDS011;7490;63.708;20.368;2023-07-20T14:16:09;1.10;;;1.10;;
14797;SDS011;7490;63.708;20.368;2023-07-20T14:18:35;0.90;;;0.90;;
14797;SDS011;7490;63.708;20.368;2023-07-20T14:21:01;1.20;;;1.10;;
14797;SDS011;7490;63.708;20.368;2023-07-20T14:23:28;1.00;;;1.00;;
14797;SDS011;7490;63.708;20.368;2023-07-20T14:25:54;2.50;;;1.10;;
14797;SDS011;7490;63.708;20.368;2023-07-20T14:28:20;1.10;;;1.10;;
14797;SDS011;7490;63.708;20.368;2023-07-20T14:30:46;1.10;;;1.10;;
14797;SDS011;7490;63.708;20.368;2023-07-20T14:33:12;0.97;;;0.97;;
14797;SDS011;7490;63.708;20.368;2023-07-20T14:35:37;1.00;;;1.00;;
14797;SDS011;7490;63.708;20.368;2023-07-20T14:38:03;2.27;;;1.20;;
14797;SDS011;7490;63.708;20.368;2023-07-20T14:40:29;1.00;;;1.00;;
14797;SDS011;7490;63.708;20.368;2023-07-20T14:42:55;1.10;;;1.10;;
14797;SDS011;7490;63.708;20.368;2023-07-20T14:45:21;1.20;;;1.20;;
14797;SDS011;7490;63.708;20.368;2023-07-20T14:47:46;0.97;;;0.97;;
14797;SDS011;7490;63.708;20.368;2023-07-20T14:50:18;0.80;;;0.80;;
14797;SDS011;7490;63.708;20.368;2023-07-20T14:52:44;0.90;;;0.90;;
14797;SDS011;7490;63.708;20.368;2023-07-20T14:55:10;0.80;;;0.80;;
14797;SDS011;7490;63.708;20.368;2023-07-20T14:57:36;0.70;;;0.70;;
14797;SDS011;7490;63.708;20.368;2023-07-20T15:00:03;0.83;;;0.70;;